Geldermalsen, Netherlands
Current Conditions -  °F | °C
As of 1:55 PM on Thursday 30 Oct 2014 (Local Time) from EHVK Reporting Station
Haze Haze  
Wind Chill: 59°   Ceiling: 800
Heat Index: 59°   Visibility: 2.4mi
Dew Point: 55°   Wind: 7mph
Humidity: 88%   Direction: 160°SSE
Pressure: 30.18"   Gusts: NA
Location:  51.88°N, 5.29°E
Report Text: EHVK 301255Z AUTO 16006KT 3900 BR SCT006 OVC008 15/13 Q1022 YLO 16006KT 3000 BR BKN006 BKN150 BECMG 4000 BR SCT007 BKN150
Loading
Personal Weather Stations






























Interactive Weather Map
Tropical Storm Tracking
New forecast layout! Learn more

10-Day Weather Forecast

Advertisements
Track Severe Weather on mobile